Time;durP1;ratioP1;P1;durP2;ratioP2;P2;SDS_P1;SDS_P2;PMS_P1;PMS_P2;Temp;Humidity;BMP_temperature;BMP_pressure;BME280_temperature;BME280_humidity;BME280_pressure;Samples;Min_cycle;Max_cycle;Signal;HPM_P1;HPM_P2
2022/07/20 00:00:13;;;;;;;13.55;6.97;;;19.80;99.90;;;;;;4823156;29;20504;-83
2022/07/20 00:03:03;;;;;;;10.85;7.20;;;19.70;99.90;;;;;;4822988;29;20196;-83
2022/07/20 00:05:51;;;;;;;13.85;6.63;;;19.70;99.90;;;;;;4823700;29;20065;-83
2022/07/20 00:11:46;;;;;;;12.77;7.25;;;19.60;99.90;;;;;;4821014;29;20464;-83
2022/07/20 00:14:33;;;;;;;11.27;6.80;;;19.60;99.90;;;;;;4822533;29;20050;-83
2022/07/20 00:17:21;;;;;;;10.77;6.40;;;19.60;99.90;;;;;;4823474;29;20119;-83
2022/07/20 00:20:12;;;;;;;14.80;6.80;;;19.50;99.90;;;;;;4831620;29;20057;-83
2022/07/20 00:22:59;;;;;;;9.57;6.50;;;19.50;99.90;;;;;;4820155;29;20050;-83
2022/07/20 00:25:47;;;;;;;9.18;7.00;;;19.40;99.90;;;;;;4829284;29;20050;-83
2022/07/20 00:28:34;;;;;;;12.18;6.93;;;19.50;99.90;;;;;;4821058;29;20533;-83
2022/07/20 00:31:22;;;;;;;16.02;7.50;;;19.50;99.90;;;;;;4829418;29;20138;-83
2022/07/20 00:34:09;;;;;;;13.02;7.28;;;19.50;99.90;;;;;;4826177;29;20142;-82
2022/07/20 00:36:56;;;;;;;9.32;6.47;;;19.40;99.90;;;;;;4829380;29;20120;-83
2022/07/20 00:39:45;;;;;;;10.38;7.13;;;19.50;99.90;;;;;;4826742;29;20056;-83
2022/07/20 00:42:36;;;;;;;12.00;6.32;;;19.50;99.90;;;;;;4818386;29;20523;-83
2022/07/20 00:45:25;;;;;;;10.80;6.65;;;19.60;99.90;;;;;;4837837;29;20042;-83
2022/07/20 00:48:15;;;;;;;12.68;6.80;;;19.50;99.90;;;;;;4829714;29;20054;-83
2022/07/20 00:51:05;;;;;;;11.95;6.78;;;19.60;99.90;;;;;;4836510;29;20445;-83
2022/07/20 00:53:55;;;;;;;11.40;6.15;;;19.70;99.90;;;;;;4856356;29;20110;-84
2022/07/20 00:56:45;;;;;;;10.50;6.70;;;19.60;99.90;;;;;;4839069;29;20058;-84
2022/07/20 00:59:34;;;;;;;9.30;6.63;;;19.50;99.90;;;;;;4824464;29;20051;-84
2022/07/20 01:02:24;;;;;;;12.50;6.55;;;19.40;99.90;;;;;;4838781;29;20058;-84
2022/07/20 01:05:14;;;;;;;9.25;6.15;;;19.40;99.90;;;;;;4828989;29;20069;-85
2022/07/20 01:08:01;;;;;;;12.93;6.78;;;19.30;99.90;;;;;;4826892;29;20160;-84
2022/07/20 01:10:49;;;;;;;13.02;6.93;;;19.40;99.90;;;;;;4837691;29;20471;-83
2022/07/20 01:13:41;;;;;;;11.30;6.28;;;19.40;99.90;;;;;;4835555;29;20050;-84
2022/07/20 01:16:31;;;;;;;8.83;6.57;;;19.40;99.90;;;;;;4831483;29;20110;-83
2022/07/20 01:19:21;;;;;;;10.95;6.53;;;19.50;99.90;;;;;;4826837;29;20054;-85
2022/07/20 01:22:15;;;;;;;9.13;5.97;;;19.50;99.90;;;;;;4826102;29;20065;-83
2022/07/20 01:25:08;;;;;;;10.57;6.18;;;19.50;99.90;;;;;;4823449;29;20453;-84
2022/07/20 01:27:58;;;;;;;12.45;6.03;;;19.50;99.90;;;;;;4830440;29;20047;-83
2022/07/20 01:30:48;;;;;;;13.73;5.85;;;19.50;99.90;;;;;;4820164;29;20085;-84
2022/07/20 01:33:35;;;;;;;12.48;5.75;;;19.60;99.90;;;;;;4832824;29;20053;-84
2022/07/20 01:36:22;;;;;;;9.93;5.63;;;19.80;99.90;;;;;;4823434;29;20069;-83
2022/07/20 01:39:09;;;;;;;11.20;5.63;;;20.10;99.90;;;;;;4833896;29;20054;-83
2022/07/20 01:42:01;;;;;;;9.45;5.78;;;20.30;99.90;;;;;;4827938;29;20172;-84
2022/07/20 01:44:51;;;;;;;11.77;5.80;;;20.40;99.90;;;;;;4827278;29;20054;-84
2022/07/20 01:47:38;;;;;;;12.85;5.82;;;20.40;99.90;;;;;;4819951;29;20111;-84
2022/07/20 01:50:26;;;;;;;7.75;5.63;;;20.20;99.90;;;;;;4826691;29;20054;-83
2022/07/20 01:53:15;;;;;;;8.90;5.18;;;20.00;99.90;;;;;;4827946;29;20138;-84
2022/07/20 01:56:02;;;;;;;12.52;6.13;;;19.90;99.90;;;;;;4827366;29;20111;-84
2022/07/20 01:58:50;;;;;;;12.90;5.57;;;19.70;99.90;;;;;;4828337;29;20054;-84
2022/07/20 02:01:40;;;;;;;11.40;5.53;;;19.60;99.90;;;;;;4826243;29;20125;-84
2022/07/20 02:04:28;;;;;;;15.70;6.60;;;19.50;99.90;;;;;;4831452;29;20156;-84
2022/07/20 02:07:19;;;;;;;10.13;5.70;;;19.40;99.90;;;;;;4826031;29;20442;-84
2022/07/20 02:10:10;;;;;;;7.75;5.65;;;19.40;99.90;;;;;;4836429;29;20430;-84
2022/07/20 02:13:00;;;;;;;11.57;5.85;;;19.20;99.90;;;;;;4829329;29;20114;-84
2022/07/20 02:18:58;;;;;;;13.27;6.07;;;19.10;99.90;;;;;;4827696;29;20121;-83
2022/07/20 02:21:45;;;;;;;10.53;6.07;;;19.10;99.90;;;;;;4824040;29;20054;-84
2022/07/20 02:24:32;;;;;;;9.27;6.65;;;19.10;99.90;;;;;;4826524;29;20073;-84
2022/07/20 02:27:19;;;;;;;13.45;7.35;;;19.00;99.90;;;;;;4817811;29;20123;-84
2022/07/20 02:30:07;;;;;;;13.23;6.78;;;18.90;99.90;;;;;;4834181;29;20146;-84
2022/07/20 02:32:54;;;;;;;12.57;6.63;;;18.80;99.90;;;;;;4817862;29;20065;-84
2022/07/20 02:35:43;;;;;;;12.88;6.60;;;18.60;99.90;;;;;;4827406;29;20150;-84
2022/07/20 02:38:31;;;;;;;10.40;6.18;;;18.50;1.00;;;;;;4825006;29;20398;-85
2022/07/20 02:41:20;;;;;;;10.20;6.30;;;18.50;1.00;;;;;;4827551;29;20133;-84
2022/07/20 02:44:14;;;;;;;9.68;6.75;;;18.50;1.00;;;;;;4823115;29;20159;-84
2022/07/20 02:47:06;;;;;;;11.45;6.20;;;18.40;1.00;;;;;;4834314;29;20460;-84
2022/07/20 02:49:54;;;;;;;18.45;6.57;;;18.40;1.00;;;;;;4831054;29;20153;-84
2022/07/20 02:52:46;;;;;;;11.80;6.22;;;18.30;1.00;;;;;;4825439;29;20054;-84
2022/07/20 02:55:37;;;;;;;8.65;6.40;;;18.40;1.00;;;;;;4828627;29;20047;-84
2022/07/20 02:58:24;;;;;;;9.98;5.68;;;18.50;1.00;;;;;;4832733;29;20046;-84
2022/07/20 03:01:16;;;;;;;14.38;6.40;;;18.50;1.00;;;;;;4819398;29;20046;-84
2022/07/20 03:04:05;;;;;;;10.38;6.00;;;18.50;1.00;;;;;;4832856;29;20124;-84
2022/07/20 03:06:53;;;;;;;10.02;5.88;;;18.40;1.00;;;;;;4830794;29;20046;-84
2022/07/20 03:09:42;;;;;;;13.68;5.75;;;18.30;1.00;;;;;;4835685;29;20065;-84
2022/07/20 03:12:29;;;;;;;8.88;5.57;;;18.30;1.00;;;;;;4814732;29;20061;-84
2022/07/20 03:15:17;;;;;;;9.32;6.05;;;18.30;1.00;;;;;;4824976;29;20073;-84
2022/07/20 03:18:06;;;;;;;12.48;5.90;;;18.30;1.00;;;;;;4826284;29;20115;-84
2022/07/20 03:20:59;;;;;;;10.80;6.10;;;18.30;1.00;;;;;;4822250;29;20500;-84
2022/07/20 03:23:47;;;;;;;10.55;5.93;;;18.10;1.00;;;;;;4821553;29;20097;-84
2022/07/20 03:26:39;;;;;;;11.13;6.43;;;18.00;1.00;;;;;;4825932;29;20051;-84
2022/07/20 03:29:28;;;;;;;11.50;5.57;;;18.00;1.00;;;;;;4819785;29;20116;-84
2022/07/20 03:32:18;;;;;;;8.25;5.93;;;17.90;1.00;;;;;;4821740;29;20380;-84
2022/07/20 03:35:06;;;;;;;10.10;6.32;;;17.80;1.00;;;;;;4828821;29;20046;-84
2022/07/20 03:37:53;;;;;;;10.63;6.10;;;17.70;1.00;;;;;;4824630;29;20059;-84
2022/07/20 03:40:45;;;;;;;11.80;5.88;;;17.70;1.00;;;;;;4826288;29;20057;-85
2022/07/20 03:43:32;;;;;;;8.70;6.05;;;17.70;1.00;;;;;;4826673;29;20115;-84
2022/07/20 03:46:21;;;;;;;8.10;5.90;;;17.90;1.00;;;;;;4830429;29;20054;-84
2022/07/20 03:49:11;;;;;;;7.88;5.55;;;18.00;1.00;;;;;;4836294;29;20467;-84
2022/07/20 03:51:58;;;;;;;11.60;5.72;;;18.00;1.00;;;;;;4825825;29;20054;-84
2022/07/20 03:54:48;;;;;;;14.25;7.32;;;18.10;1.00;;;;;;4825033;29;20054;-85
2022/07/20 03:57:36;;;;;;;10.45;6.30;;;18.10;1.00;;;;;;4838075;29;20057;-84
2022/07/20 04:00:25;;;;;;;11.45;6.63;;;18.00;1.00;;;;;;4815258;29;20057;-84
2022/07/20 04:03:23;;;;;;;10.88;6.72;;;17.90;1.00;;;;;;4830247;29;20065;-82
2022/07/20 04:06:12;;;;;;;13.50;7.68;;;17.80;1.00;;;;;;4827290;29;20084;-86
2022/07/20 04:09:00;;;;;;;12.02;7.68;;;17.70;1.00;;;;;;4826147;29;20065;-84
2022/07/20 04:11:47;;;;;;;10.45;6.80;;;17.60;1.00;;;;;;4824343;29;20062;-84
2022/07/20 04:15:02;;;;;;;9.52;6.20;;;17.70;1.00;;;;;;4813034;29;20054;-83
2022/07/20 04:17:50;;;;;;;9.27;6.25;;;17.60;1.00;;;;;;4812683;29;20498;-83
2022/07/20 04:20:44;;;;;;;12.73;7.25;;;17.60;1.00;;;;;;4822849;29;20050;-84
2022/07/20 04:23:32;;;;;;;10.50;7.30;;;17.50;24.40;;;;;;4843601;29;20174;-84
2022/07/20 04:26:19;;;;;;;12.82;8.05;;;17.50;46.30;;;;;;4827148;29;20065;-84
2022/07/20 04:29:06;;;;;;;15.20;7.80;;;17.50;55.50;;;;;;4818944;29;20380;-84
2022/07/20 04:31:56;;;;;;;15.73;7.47;;;17.50;51.00;;;;;;4831542;29;20130;-85
2022/07/20 04:34:44;;;;;;;14.52;7.25;;;17.60;21.90;;;;;;4822816;29;20054;-84
2022/07/20 04:37:42;;;;;;;13.43;6.78;;;17.70;15.10;;;;;;4816930;29;20111;-83
2022/07/20 04:40:29;;;;;;;12.43;6.97;;;17.90;12.80;;;;;;4836384;29;20379;-84
2022/07/20 04:43:25;;;;;;;10.25;6.82;;;18.10;1.00;;;;;;4815114;29;20147;-84
2022/07/20 04:46:12;;;;;;;10.63;7.07;;;18.30;1.00;;;;;;4828802;29;20118;-84
2022/07/20 04:49:03;;;;;;;13.68;7.10;;;18.40;1.00;;;;;;4832680;29;20065;-84
2022/07/20 04:51:52;;;;;;;7.85;6.38;;;18.50;1.00;;;;;;4818627;29;20065;-83
2022/07/20 04:54:41;;;;;;;13.20;7.18;;;18.60;1.00;;;;;;4825718;29;20513;-83
2022/07/20 04:57:31;;;;;;;7.80;5.68;;;18.60;1.00;;;;;;4828112;29;20050;-83
2022/07/20 05:00:23;;;;;;;9.35;7.25;;;18.60;1.00;;;;;;4823774;29;20046;-83
2022/07/20 05:03:13;;;;;;;14.02;7.68;;;18.60;1.00;;;;;;4840039;29;20046;-83
2022/07/20 05:06:00;;;;;;;12.82;6.93;;;18.60;1.00;;;;;;4837544;29;20461;-84
2022/07/20 05:08:48;;;;;;;17.15;7.80;;;18.80;1.00;;;;;;4831915;29;20417;-83
2022/07/20 05:11:40;;;;;;;13.07;7.13;;;19.00;1.00;;;;;;4834446;29;20061;-84
2022/07/20 05:14:27;;;;;;;13.60;6.68;;;19.30;1.00;;;;;;4835746;29;20050;-85
2022/07/20 05:17:18;;;;;;;15.25;7.38;;;19.50;1.00;;;;;;4845477;29;20314;-85
2022/07/20 05:20:05;;;;;;;13.18;6.75;;;19.70;1.00;;;;;;4856807;29;20071;-83
2022/07/20 05:22:55;;;;;;;11.50;6.95;;;20.00;1.00;;;;;;4849239;29;20042;-82
2022/07/20 05:25:44;;;;;;;12.10;7.65;;;20.30;1.00;;;;;;4836756;29;20049;-82
2022/07/20 05:28:35;;;;;;;13.75;7.50;;;20.50;1.00;;;;;;4862122;29;20130;-83
2022/07/20 05:31:25;;;;;;;14.55;7.03;;;20.70;1.00;;;;;;4832634;29;20057;-82
2022/07/20 05:34:15;;;;;;;13.98;7.60;;;20.80;1.00;;;;;;4848971;29;20098;-83
2022/07/20 05:37:04;;;;;;;9.88;6.65;;;21.10;1.00;;;;;;4842838;29;20066;-83
2022/07/20 05:39:52;;;;;;;13.23;6.60;;;21.20;1.00;;;;;;4845563;29;20054;-85
2022/07/20 05:42:46;;;;;;;17.50;7.40;;;21.40;1.00;;;;;;4840741;29;20038;-86
2022/07/20 05:45:34;;;;;;;9.73;6.43;;;21.50;1.00;;;;;;4839600;29;20138;-84
2022/07/20 05:48:24;;;;;;;11.02;6.88;;;21.60;1.00;;;;;;4824161;29;20101;-84
2022/07/20 05:51:16;;;;;;;13.73;7.13;;;21.80;1.00;;;;;;4830549;29;20046;-85
2022/07/20 05:54:18;;;;;;;18.65;7.32;;;21.90;1.00;;;;;;4830930;29;20066;-85
2022/07/20 05:57:06;;;;;;;16.17;7.30;;;22.10;1.00;;;;;;4832473;29;20051;-84
2022/07/20 06:00:01;;;;;;;13.90;7.90;;;22.10;1.00;;;;;;4829911;29;20050;-83
2022/07/20 06:02:48;;;;;;;15.73;6.80;;;22.30;1.00;;;;;;4836316;29;20050;-84
2022/07/20 06:05:36;;;;;;;12.82;6.60;;;22.40;1.00;;;;;;4834514;29;20065;-85
2022/07/20 06:08:23;;;;;;;14.43;6.80;;;22.60;1.00;;;;;;4848575;29;20087;-84
2022/07/20 06:11:10;;;;;;;11.68;7.32;;;22.70;99.90;;;;;;4840359;29;20054;-84
2022/07/20 06:13:58;;;;;;;13.63;7.25;;;22.80;99.90;;;;;;4832581;29;20092;-84
2022/07/20 06:16:47;;;;;;;12.73;7.05;;;22.80;1.00;;;;;;4829973;29;20046;-84
2022/07/20 06:19:34;;;;;;;10.15;6.78;;;22.80;1.00;;;;;;4826655;29;20133;-85
2022/07/20 06:22:22;;;;;;;11.43;6.30;;;22.50;1.00;;;;;;4842564;29;20077;-85
2022/07/20 06:25:13;;;;;;;14.52;7.32;;;22.70;99.90;;;;;;4832100;29;20062;-85
2022/07/20 06:28:03;;;;;;;9.48;6.97;;;22.90;99.90;;;;;;4830170;29;20054;-85
2022/07/20 06:30:54;;;;;;;15.25;6.60;;;23.30;99.90;;;;;;4830528;29;20065;-85
2022/07/20 06:33:43;;;;;;;10.40;6.72;;;23.50;99.90;;;;;;4821890;29;20051;-85
2022/07/20 06:36:32;;;;;;;12.15;6.53;;;23.70;99.90;;;;;;4827886;29;20255;-86
2022/07/20 06:39:24;;;;;;;10.50;6.80;;;23.80;99.90;;;;;;4828710;29;20494;-85
2022/07/20 06:42:11;;;;;;;9.40;6.43;;;24.00;99.90;;;;;;4823519;29;20050;-86
2022/07/20 06:45:00;;;;;;;11.10;6.65;;;24.20;99.90;;;;;;4817945;29;20069;-86
2022/07/20 06:47:49;;;;;;;11.25;6.38;;;24.50;99.90;;;;;;4830349;29;20050;-86
2022/07/20 06:50:41;;;;;;;16.27;6.88;;;24.70;99.90;;;;;;4834974;29;20062;-86
2022/07/20 06:53:33;;;;;;;8.77;6.40;;;24.80;99.90;;;;;;4819449;29;20054;-85
2022/07/20 06:56:20;;;;;;;9.35;6.57;;;25.10;99.90;;;;;;4828482;29;20276;-86
2022/07/20 06:59:07;;;;;;;9.45;6.00;;;25.30;99.90;;;;;;4839366;29;20337;-84
2022/07/20 07:01:54;;;;;;;11.45;6.60;;;25.40;99.90;;;;;;4825261;29;20110;-83
2022/07/20 07:04:42;;;;;;;10.48;6.55;;;25.80;99.90;;;;;;4825423;29;20463;-86
2022/07/20 07:07:31;;;;;;;11.77;6.18;;;26.10;99.90;;;;;;4819615;29;20065;-85
2022/07/20 07:10:21;;;;;;;8.90;5.93;;;26.50;99.90;;;;;;4823001;29;20058;-84
2022/07/20 07:13:10;;;;;;;10.27;5.82;;;26.70;99.90;;;;;;4831492;29;20054;-84
2022/07/20 07:16:00;;;;;;;9.30;6.25;;;27.20;99.90;;;;;;4834622;29;20364;-84
2022/07/20 07:18:50;;;;;;;10.55;5.72;;;27.70;99.90;;;;;;4825778;29;20043;-84
2022/07/20 07:21:38;;;;;;;23.02;7.15;;;28.00;99.90;;;;;;4825972;29;20138;-86
2022/07/20 07:24:27;;;;;;;7.15;5.68;;;28.30;99.90;;;;;;4839003;29;20120;-86
2022/07/20 07:27:20;;;;;;;9.23;5.65;;;28.60;99.90;;;;;;4816522;29;20051;-85
2022/07/20 07:30:08;;;;;;;7.18;5.70;;;28.50;99.90;;;;;;4830106;29;20073;-86
2022/07/20 07:32:57;;;;;;;6.65;5.72;;;29.20;99.90;;;;;;4814883;29;20061;-84
2022/07/20 07:35:45;;;;;;;8.93;5.93;;;30.10;99.90;;;;;;4829273;29;20054;-85
2022/07/20 07:38:36;;;;;;;10.05;5.63;;;31.10;99.90;;;;;;4818213;29;20078;-85
2022/07/20 07:41:27;;;;;;;8.18;5.40;;;31.70;99.90;;;;;;4815189;29;20504;-85
2022/07/20 07:44:14;;;;;;;11.93;5.95;;;31.60;99.90;;;;;;4837899;29;20501;-85
2022/07/20 07:47:04;;;;;;;11.63;5.70;;;31.60;99.90;;;;;;4825724;29;20050;-85
2022/07/20 07:49:56;;;;;;;9.30;5.25;;;32.10;99.90;;;;;;4836244;29;20057;-85
2022/07/20 07:52:48;;;;;;;14.40;5.68;;;32.30;99.90;;;;;;4827088;29;20137;-84
2022/07/20 07:55:45;;;;;;;10.25;5.20;;;32.70;99.90;;;;;;4826936;29;20043;-85
2022/07/20 07:58:35;;;;;;;7.63;5.63;;;33.20;99.90;;;;;;4819909;29;20149;-84
2022/07/20 08:01:27;;;;;;;11.10;5.43;;;33.70;99.90;;;;;;4829159;29;20055;-86
2022/07/20 08:04:14;;;;;;;9.43;5.40;;;34.30;99.90;;;;;;4820005;29;20141;-86
2022/07/20 08:07:02;;;;;;;7.65;5.90;;;34.70;99.90;;;;;;4835751;29;20302;-86
2022/07/20 08:09:49;;;;;;;10.23;5.35;;;35.10;99.90;;;;;;4817223;29;20069;-85
2022/07/20 08:12:37;;;;;;;9.93;5.68;;;34.40;99.90;;;;;;4820931;29;20141;-85
2022/07/20 08:15:25;;;;;;;6.63;5.22;;;33.90;99.90;;;;;;4826034;29;20050;-85
2022/07/20 08:18:12;;;;;;;12.15;5.35;;;33.70;99.90;;;;;;4827267;29;20046;-85
2022/07/20 08:21:02;;;;;;;9.48;5.30;;;33.90;99.90;;;;;;4828096;29;20054;-85
2022/07/20 08:23:51;;;;;;;6.53;5.25;;;33.80;99.90;;;;;;4829779;29;20050;-84
2022/07/20 08:26:43;;;;;;;9.93;5.45;;;34.50;99.90;;;;;;4834276;29;20050;-83
2022/07/20 08:29:30;;;;;;;9.50;5.07;;;35.00;99.90;;;;;;4832938;29;20060;-84
2022/07/20 08:32:18;;;;;;;6.32;4.95;;;35.50;99.90;;;;;;4828010;29;20097;-84
2022/07/20 08:35:10;;;;;;;10.73;5.50;;;36.40;99.90;;;;;;4827635;29;20061;-85
2022/07/20 08:38:00;;;;;;;8.25;5.00;;;36.20;99.90;;;;;;4832359;29;20057;-85
2022/07/20 08:40:50;;;;;;;10.18;4.60;;;36.50;99.90;;;;;;4828332;29;20054;-86
2022/07/20 08:43:39;;;;;;;7.63;4.40;;;37.30;99.90;;;;;;4829580;29;20117;-85
2022/07/20 08:46:29;;;;;;;7.72;4.97;;;38.00;99.90;;;;;;4827320;29;20071;-85
2022/07/20 08:49:18;;;;;;;8.15;4.88;;;37.70;99.90;;;;;;4830023;29;20050;-85
2022/07/20 08:52:05;;;;;;;8.65;4.53;;;37.80;99.90;;;;;;4835712;29;20085;-83
2022/07/20 08:54:56;;;;;;;9.65;4.55;;;38.00;99.90;;;;;;4834645;29;20046;-85
2022/07/20 08:57:45;;;;;;;9.10;4.13;;;38.50;99.90;;;;;;4828038;29;20054;-87
2022/07/20 09:00:33;;;;;;;7.18;4.30;;;38.90;99.90;;;;;;4843440;29;20049;-84
2022/07/20 09:03:26;;;;;;;6.20;4.57;;;38.90;99.90;;;;;;4827307;29;20149;-84
2022/07/20 09:06:13;;;;;;;5.93;4.22;;;39.20;99.90;;;;;;4827271;29;20046;-90
2022/07/20 09:09:04;;;;;;;8.75;3.97;;;38.00;99.90;;;;;;4834956;29;20083;-89
2022/07/20 09:11:52;;;;;;;5.55;4.28;;;38.10;99.90;;;;;;4833573;29;20062;-89
2022/07/20 09:14:40;;;;;;;10.23;4.15;;;38.70;99.90;;;;;;4824176;29;20060;-90
2022/07/20 09:17:28;;;;;;;5.70;3.70;;;39.30;99.90;;;;;;4819481;29;20130;-90
2022/07/20 09:20:18;;;;;;;9.68;4.20;;;38.70;99.90;;;;;;4837811;29;20094;-90
2022/07/20 09:23:13;;;;;;;8.02;4.40;;;37.50;99.90;;;;;;4834640;29;20062;-91
2022/07/20 09:26:05;;;;;;;9.23;4.70;;;37.00;99.90;;;;;;4822310;29;20087;-91
2022/07/20 09:28:55;;;;;;;6.95;4.63;;;37.00;99.90;;;;;;4822700;29;20058;-90
2022/07/20 09:34:37;;;;;;;5.88;3.95;;;38.40;99.90;;;;;;4774968;30;20047;-91
2022/07/20 09:37:28;;;;;;;9.55;3.80;;;38.70;99.90;;;;;;4775923;29;20044;-91
2022/07/20 09:40:16;;;;;;;6.65;3.72;;;39.70;99.90;;;;;;4785150;30;20424;-92
2022/07/20 09:43:03;;;;;;;7.40;3.78;;;40.90;99.90;;;;;;4775852;29;20058;-89
2022/07/20 09:45:51;;;;;;;6.38;3.55;;;41.60;99.90;;;;;;4772867;30;20072;-89
2022/07/20 09:48:45;;;;;;;8.98;4.10;;;42.00;99.90;;;;;;4783173;30;20059;-91
2022/07/20 09:51:35;;;;;;;8.05;3.85;;;42.10;99.90;;;;;;4784426;29;20052;-90
2022/07/20 09:54:22;;;;;;;9.23;4.45;;;41.80;99.90;;;;;;4783106;29;20055;-91
2022/07/20 09:57:11;;;;;;;6.95;3.90;;;41.40;99.90;;;;;;4783531;29;20052;-90
2022/07/20 10:00:03;;;;;;;8.57;3.75;;;41.60;99.90;;;;;;4783445;29;20809;-90
2022/07/20 10:02:54;;;;;;;7.35;3.60;;;42.00;99.90;;;;;;4783789;30;20150;-88
2022/07/20 10:05:45;;;;;;;6.03;3.45;;;42.20;99.90;;;;;;4779409;29;20125;-91
2022/07/20 10:08:32;;;;;;;8.52;3.55;;;42.60;99.90;;;;;;4777930;29;20056;-90
2022/07/20 10:11:22;;;;;;;5.97;3.92;;;42.50;99.90;;;;;;4774847;29;20051;-91
2022/07/20 10:14:10;;;;;;;7.72;3.58;;;42.60;99.90;;;;;;4776062;30;20052;-91
2022/07/20 10:16:57;;;;;;;6.20;4.00;;;42.90;99.90;;;;;;4777826;30;20063;-90
2022/07/20 10:19:46;;;;;;;8.85;3.53;;;43.00;99.90;;;;;;4772155;29;20056;-90
2022/07/20 10:22:36;;;;;;;7.70;3.78;;;42.40;99.90;;;;;;4775340;30;20066;-91
2022/07/20 10:25:31;;;;;;;7.35;3.78;;;42.90;99.90;;;;;;4784820;30;20133;-90
2022/07/20 10:28:37;;;;;;;8.68;3.95;;;43.40;99.90;;;;;;4777005;29;20071;-89
2022/07/20 10:31:24;;;;;;;8.40;3.78;;;43.50;99.90;;;;;;4780251;29;20052;-90
2022/07/20 10:34:33;;;;;;;10.98;4.15;;;43.10;99.90;;;;;;4781970;29;20099;-90
2022/07/20 10:37:41;;;;;;;7.22;4.22;;;41.70;99.90;;;;;;4774037;30;20075;-91
2022/07/20 10:40:28;;;;;;;8.55;4.28;;;40.80;99.90;;;;;;4769470;30;20067;-91
2022/07/20 10:43:16;;;;;;;4.85;3.70;;;40.60;99.90;;;;;;4771219;30;20086;-90
2022/07/20 10:46:35;;;;;;;11.27;4.38;;;40.50;99.90;;;;;;4786643;30;20089;-90
2022/07/20 10:50:00;;;;;;;5.55;4.43;;;40.50;99.90;;;;;;4785811;30;20071;-91
2022/07/20 10:52:58;;;;;;;6.43;4.00;;;40.40;99.90;;;;;;4773313;29;20055;-92
2022/07/20 10:55:58;;;;;;;8.50;4.38;;;41.30;99.90;;;;;;4773628;30;20052;-91
2022/07/20 10:58:45;;;;;;;7.88;4.18;;;42.00;99.90;;;;;;4775108;30;20108;-88
2022/07/20 11:01:33;;;;;;;5.97;4.15;;;42.60;99.90;;;;;;4786443;29;20052;-89
2022/07/20 11:04:21;;;;;;;6.75;4.75;;;41.80;99.90;;;;;;4768513;30;20070;-91
2022/07/20 11:07:28;;;;;;;7.70;4.65;;;42.10;99.90;;;;;;4771306;29;20397;-89
2022/07/20 11:10:30;;;;;;;10.35;4.55;;;42.50;99.90;;;;;;4772429;29;20060;-90
2022/07/20 11:13:18;;;;;;;6.53;4.47;;;43.50;99.90;;;;;;4776573;30;20079;-91
2022/07/20 11:16:05;;;;;;;9.45;4.70;;;43.20;99.90;;;;;;4772781;30;20047;-91
2022/07/20 11:18:57;;;;;;;9.57;4.47;;;42.30;99.90;;;;;;4762988;30;20098;-89
2022/07/20 11:21:44;;;;;;;7.88;4.80;;;42.90;99.90;;;;;;4774672;29;20059;-90
2022/07/20 11:24:32;;;;;;;7.25;4.60;;;43.90;99.90;;;;;;4791331;30;20095;-90
2022/07/20 11:27:19;;;;;;;9.93;4.53;;;43.50;99.90;;;;;;4770960;30;20079;-88
2022/07/20 11:30:08;;;;;;;13.88;4.30;;;43.50;99.90;;;;;;4783196;29;20059;-91
2022/07/20 11:33:08;;;;;;;5.43;4.15;;;43.00;99.90;;;;;;4781008;29;20113;-88
2022/07/20 11:36:18;;;;;;;9.05;4.93;;;43.50;99.90;;;;;;4776372;29;20063;-90
2022/07/20 11:39:10;;;;;;;7.68;4.93;;;43.80;99.90;;;;;;4777320;29;20355;-90
2022/07/20 11:42:10;;;;;;;11.88;4.50;;;44.40;99.90;;;;;;4766013;30;20099;-89
2022/07/20 11:45:01;;;;;;;11.63;4.53;;;43.50;99.90;;;;;;4779868;30;20107;-90
2022/07/20 11:47:48;;;;;;;10.00;4.22;;;42.20;99.90;;;;;;4777541;30;20410;-88
2022/07/20 11:50:55;;;;;;;8.70;4.53;;;42.50;99.90;;;;;;4778881;29;20487;-89
2022/07/20 11:53:45;;;;;;;8.13;4.47;;;43.40;99.90;;;;;;4773957;29;20110;-90
2022/07/20 11:56:34;;;;;;;7.85;4.15;;;43.20;99.90;;;;;;4775110;29;20047;-89
2022/07/20 11:59:24;;;;;;;10.25;4.45;;;43.10;99.90;;;;;;4790295;29;20482;-89
2022/07/20 12:02:13;;;;;;;8.20;4.63;;;43.20;99.90;;;;;;4777175;30;20132;-89
2022/07/20 12:05:00;;;;;;;8.15;4.05;;;43.20;99.90;;;;;;4777925;29;20047;-89
2022/07/20 12:11:03;;;;;;;7.22;4.43;;;42.60;99.90;;;;;;4783952;29;20039;-88
2022/07/20 12:13:57;;;;;;;7.00;4.13;;;41.50;99.90;;;;;;4775512;29;20046;-85
2022/07/20 12:17:00;;;;;;;10.75;4.47;;;41.30;99.90;;;;;;4791095;29;20050;-85
2022/07/20 12:20:01;;;;;;;9.82;4.53;;;40.00;99.90;;;;;;4793084;29;20073;-82
2022/07/20 12:23:04;;;;;;;9.00;4.45;;;38.80;99.90;;;;;;4792136;29;20043;-85
2022/07/20 12:25:52;;;;;;;11.80;4.72;;;38.10;99.90;;;;;;4778458;30;20048;-90
2022/07/20 12:28:42;;;;;;;8.88;4.55;;;37.40;99.90;;;;;;4786078;30;20047;-91
2022/07/20 12:32:05;;;;;;;8.13;4.75;;;36.90;99.90;;;;;;4779454;30;20150;-91
2022/07/20 12:34:54;;;;;;;8.73;4.97;;;36.10;99.90;;;;;;4791287;30;20062;-88
2022/07/20 12:37:56;;;;;;;8.98;4.85;;;35.40;99.90;;;;;;4792792;30;20031;-90
2022/07/20 12:40:48;;;;;;;8.38;4.72;;;34.90;99.90;;;;;;4790878;30;20056;-90
2022/07/20 12:43:40;;;;;;;8.80;4.80;;;34.40;99.90;;;;;;4782042;29;20067;-90
2022/07/20 12:46:28;;;;;;;;;;;34.10;99.90;;;;;;4795025;29;20462;-89
2022/07/20 12:49:30;;;;;;;7.75;4.80;;;33.70;99.90;;;;;;4795034;29;19936;-88
2022/07/20 12:52:19;;;;;;;11.25;5.93;;;33.50;99.90;;;;;;4793580;29;20074;-87
2022/07/20 12:55:08;;;;;;;14.25;9.02;;;33.20;99.90;;;;;;4793576;29;20052;-88
2022/07/20 12:57:59;;;;;;;16.00;11.23;;;32.80;99.90;;;;;;4802064;29;20040;-89
2022/07/20 13:00:48;;;;;;;25.85;11.57;;;32.10;99.90;;;;;;4806824;29;20055;-89
2022/07/20 13:03:37;;;;;;;29.77;12.93;;;30.20;99.90;;;;;;4789881;29;20031;-89
2022/07/20 13:06:46;;;;;;;30.67;16.33;;;28.40;99.90;;;;;;4796788;29;20119;-84
2022/07/20 13:09:38;;;;;;;30.38;17.40;;;26.20;94.70;;;;;;4808662;29;20043;-81
2022/07/20 13:12:26;;;;;;;24.83;17.85;;;25.10;99.90;;;;;;4789497;29;20052;-86
2022/07/20 13:15:14;;;;;;;39.45;19.73;;;24.30;99.90;;;;;;4789060;29;20118;-88
2022/07/20 13:18:21;;;;;;;41.35;19.52;;;23.60;1.00;;;;;;4773725;30;20147;-86
2022/07/20 13:21:09;;;;;;;36.30;19.63;;;23.10;25.60;;;;;;4778828;30;20066;-86
2022/07/20 13:23:57;;;;;;;32.03;23.48;;;22.80;42.30;;;;;;4774848;30;20085;-88
2022/07/20 13:26:48;;;;;;;34.22;24.92;;;22.80;99.90;;;;;;4775592;30;20052;-87
2022/07/20 13:29:37;;;;;;;32.88;24.73;;;23.00;99.90;;;;;;4783985;30;20048;-88
2022/07/20 13:32:25;;;;;;;37.70;21.95;;;23.30;99.90;;;;;;4782293;30;20051;-87
2022/07/20 13:35:16;;;;;;;30.50;19.75;;;23.60;99.90;;;;;;4774418;30;20051;-85
2022/07/20 13:38:04;;;;;;;27.67;18.33;;;23.80;89.40;;;;;;4781384;30;20051;-88
2022/07/20 13:40:52;;;;;;;25.25;18.33;;;24.10;1.00;;;;;;4780297;30;20047;-87
2022/07/20 13:43:40;;;;;;;25.52;19.92;;;24.50;1.00;;;;;;4782175;29;20154;-89
2022/07/20 13:46:29;;;;;;;23.55;17.45;;;25.50;34.70;;;;;;4780305;30;20059;-86
2022/07/20 13:49:17;;;;;;;21.90;15.95;;;26.40;99.90;;;;;;4768537;30;20055;-87
2022/07/20 13:52:06;;;;;;;22.55;16.42;;;26.90;1.00;;;;;;4796015;30;20477;-87
2022/07/20 13:55:11;;;;;;;22.42;17.25;;;27.10;27.70;;;;;;4785655;30;20047;-87
2022/07/20 13:58:01;;;;;;;19.42;17.15;;;27.30;94.10;;;;;;4775491;30;20051;-85
2022/07/20 14:00:51;;;;;;;26.23;18.08;;;27.30;1.00;;;;;;4787135;29;20051;-88
2022/07/20 14:03:38;;;;;;;27.15;17.85;;;27.20;1.00;;;;;;4784381;29;20122;-89
2022/07/20 14:06:26;;;;;;;26.08;18.33;;;27.30;99.90;;;;;;4782174;30;20079;-89
2022/07/20 14:09:13;;;;;;;27.85;17.65;;;27.50;99.90;;;;;;4789787;29;20108;-88
2022/07/20 14:12:01;;;;;;;26.25;16.95;;;27.60;99.90;;;;;;4772010;29;20658;-88
2022/07/20 14:14:49;;;;;;;22.63;16.02;;;28.00;99.90;;;;;;4777945;30;20066;-88
2022/07/20 14:17:38;;;;;;;25.20;17.17;;;29.10;99.90;;;;;;4769652;29;20052;-87
2022/07/20 14:20:26;;;;;;;22.65;15.60;;;30.20;99.90;;;;;;4785919;29;20066;-89
2022/07/20 14:23:34;;;;;;;21.30;14.93;;;31.80;99.90;;;;;;4788597;30;20477;-89
2022/07/20 14:26:24;;;;;;;21.75;13.77;;;33.30;99.90;;;;;;4772246;29;20052;-87
2022/07/20 14:29:12;;;;;;;21.77;15.20;;;34.30;99.90;;;;;;4792193;29;20077;-89
2022/07/20 14:32:01;;;;;;;19.98;14.07;;;34.10;99.90;;;;;;4774836;30;20371;-90
2022/07/20 14:34:50;;;;;;;18.35;14.10;;;33.50;99.90;;;;;;4777217;29;20131;-90
2022/07/20 14:37:38;;;;;;;18.55;14.18;;;32.90;99.90;;;;;;4787090;29;20085;-89
2022/07/20 14:40:29;;;;;;;23.55;15.45;;;32.10;99.90;;;;;;4773229;30;20102;-87
2022/07/20 14:43:19;;;;;;;22.50;15.15;;;31.60;99.90;;;;;;4770122;30;20051;-88
2022/07/20 14:46:09;;;;;;;19.33;14.43;;;31.30;99.90;;;;;;4762421;30;20056;-88
2022/07/20 14:48:57;;;;;;;22.75;14.27;;;32.30;99.90;;;;;;4776324;29;20052;-88
2022/07/20 14:51:44;;;;;;;20.80;13.85;;;33.60;99.90;;;;;;4765444;30;20493;-90
2022/07/20 14:54:32;;;;;;;20.23;13.48;;;34.80;99.90;;;;;;4778197;30;20048;-87